DNCA

Details ICAO DNCA (CBQ)
Name CALABAR
Region Nigeria
Timezone Africa/Lagos (UTC+1.0)
Plans Departing 7
Arriving 9
Stats Elevation 210 ft / 64 m (AMSL)
Location 4.976046° 8.347299°
Runways 1
Magnetic Variation 1.222° W
Sunrise 2018-05-24 05:13:44 UTC / 2018-05-24 06:13:44 Local
Sunset 2018-05-24 17:36:01 UTC / 2018-05-24 18:36:01 Local
Advertisement - Login to hide

Runways

ID Width Length Bearing (true) Bearing (mag) Surface Threshold Offset Overrun Length
03 148 ft / 45 m 8,076 ft / 2,462 m 26.78° 28.00° Asphalt 0 ft / 0 m 200 ft / 61 m
21 148 ft / 45 m 8,076 ft / 2,462 m 206.78° 208.00° Asphalt 0 ft / 0 m 200 ft / 61 m

Approach Navaids

Runway Type Ident Frequency Range Bearing (true) Bearing (mag) Slope Elevation
21 Localiser ICL 109.10 MHz 18 nm / 33 km 208.93° 210.15° - 200 ft / 61 m (AMSL)

Map

Weather


0- 5 10 15 20 25 30 35+ Temperature / ° C

Clouds and Precipitation
Forecast for 2018-05-24 12:00 UTC. Updated 3 hours ago

Ground ~20,000 ft ~40,000 ft Winds

METAR

Not found

TAF

TAF DNCA 240950Z 2412/2518 21006KT 7000 BKN008 FEW018CB TEMPO 2412/2418 26016G26KT 1500 TSRA BECMG 2419/2421 SCT008

Frequencies

Tower 124.50 MHz TWR
Warning: Do not use this data for real-world aviation or navigation. No guarantee of current accuracy is given.